sensor_id;sensor_type;location;lat;lon;timestamp;P1;durP1;ratioP1;P2;durP2;ratioP2
1390;SDS011;690;51.454;7.194;2023-04-06T00:00:26;14.75;;;9.43;;
1390;SDS011;690;51.454;7.194;2023-04-06T00:02:53;12.73;;;9.80;;
1390;SDS011;690;51.454;7.194;2023-04-06T00:05:20;13.15;;;9.70;;
1390;SDS011;690;51.454;7.194;2023-04-06T00:07:49;13.43;;;9.07;;
1390;SDS011;690;51.454;7.194;2023-04-06T00:10:17;14.25;;;9.45;;
1390;SDS011;690;51.454;7.194;2023-04-06T00:12:44;16.02;;;9.50;;
1390;SDS011;690;51.454;7.194;2023-04-06T00:15:11;16.75;;;9.65;;
1390;SDS011;690;51.454;7.194;2023-04-06T00:17:38;12.60;;;9.55;;
1390;SDS011;690;51.454;7.194;2023-04-06T00:20:06;13.98;;;9.63;;
1390;SDS011;690;51.454;7.194;2023-04-06T00:22:33;14.10;;;8.90;;
1390;SDS011;690;51.454;7.194;2023-04-06T00:25:02;13.20;;;9.70;;
1390;SDS011;690;51.454;7.194;2023-04-06T00:27:29;16.85;;;9.68;;
1390;SDS011;690;51.454;7.194;2023-04-06T00:29:56;14.93;;;10.18;;
1390;SDS011;690;51.454;7.194;2023-04-06T00:32:23;21.33;;;10.73;;
1390;SDS011;690;51.454;7.194;2023-04-06T00:34:50;17.83;;;9.60;;
1390;SDS011;690;51.454;7.194;2023-04-06T00:37:17;14.57;;;10.13;;
1390;SDS011;690;51.454;7.194;2023-04-06T00:39:44;15.43;;;9.57;;
1390;SDS011;690;51.454;7.194;2023-04-06T00:42:13;15.55;;;10.25;;
1390;SDS011;690;51.454;7.194;2023-04-06T00:44:40;16.90;;;9.90;;
1390;SDS011;690;51.454;7.194;2023-04-06T00:47:07;18.55;;;9.77;;
1390;SDS011;690;51.454;7.194;2023-04-06T00:49:35;17.25;;;10.18;;
1390;SDS011;690;51.454;7.194;2023-04-06T00:52:02;14.95;;;9.63;;
1390;SDS011;690;51.454;7.194;2023-04-06T00:54:29;16.95;;;9.20;;
1390;SDS011;690;51.454;7.194;2023-04-06T00:56:56;17.45;;;10.18;;
1390;SDS011;690;51.454;7.194;2023-04-06T00:59:25;16.38;;;9.80;;
1390;SDS011;690;51.454;7.194;2023-04-06T01:01:54;13.68;;;10.35;;
1390;SDS011;690;51.454;7.194;2023-04-06T01:04:21;15.95;;;9.95;;
1390;SDS011;690;51.454;7.194;2023-04-06T01:06:48;14.60;;;11.38;;
1390;SDS011;690;51.454;7.194;2023-04-06T01:09:15;15.18;;;9.98;;
1390;SDS011;690;51.454;7.194;2023-04-06T01:11:43;14.75;;;9.90;;
1390;SDS011;690;51.454;7.194;2023-04-06T01:14:10;13.20;;;9.15;;
1390;SDS011;690;51.454;7.194;2023-04-06T01:16:40;17.00;;;10.18;;
1390;SDS011;690;51.454;7.194;2023-04-06T01:19:08;14.25;;;10.48;;
1390;SDS011;690;51.454;7.194;2023-04-06T01:21:35;16.08;;;10.35;;
1390;SDS011;690;51.454;7.194;2023-04-06T01:24:04;13.32;;;9.55;;
1390;SDS011;690;51.454;7.194;2023-04-06T01:26:32;12.07;;;9.20;;
1390;SDS011;690;51.454;7.194;2023-04-06T01:29:00;18.15;;;11.05;;
1390;SDS011;690;51.454;7.194;2023-04-06T01:31:27;13.90;;;9.20;;
1390;SDS011;690;51.454;7.194;2023-04-06T01:33:55;13.93;;;8.98;;
1390;SDS011;690;51.454;7.194;2023-04-06T01:36:22;10.15;;;8.13;;
1390;SDS011;690;51.454;7.194;2023-04-06T01:38:50;12.55;;;8.45;;
1390;SDS011;690;51.454;7.194;2023-04-06T01:41:18;14.52;;;8.50;;
1390;SDS011;690;51.454;7.194;2023-04-06T01:43:46;14.00;;;8.15;;
1390;SDS011;690;51.454;7.194;2023-04-06T01:46:14;12.65;;;8.38;;
1390;SDS011;690;51.454;7.194;2023-04-06T01:48:41;9.63;;;8.02;;
1390;SDS011;690;51.454;7.194;2023-04-06T01:51:08;10.23;;;8.20;;
1390;SDS011;690;51.454;7.194;2023-04-06T01:53:35;12.93;;;8.30;;
1390;SDS011;690;51.454;7.194;2023-04-06T01:56:07;12.27;;;8.43;;
1390;SDS011;690;51.454;7.194;2023-04-06T01:58:35;13.40;;;9.18;;
1390;SDS011;690;51.454;7.194;2023-04-06T02:01:02;14.32;;;8.50;;
1390;SDS011;690;51.454;7.194;2023-04-06T02:03:29;11.65;;;8.05;;
1390;SDS011;690;51.454;7.194;2023-04-06T02:05:56;10.25;;;7.88;;
1390;SDS011;690;51.454;7.194;2023-04-06T02:08:23;11.45;;;8.02;;
1390;SDS011;690;51.454;7.194;2023-04-06T02:10:50;10.98;;;7.53;;
1390;SDS011;690;51.454;7.194;2023-04-06T02:13:17;9.90;;;7.82;;
1390;SDS011;690;51.454;7.194;2023-04-06T02:15:45;12.05;;;8.43;;
1390;SDS011;690;51.454;7.194;2023-04-06T02:18:12;9.13;;;7.40;;
1390;SDS011;690;51.454;7.194;2023-04-06T02:20:40;10.82;;;8.35;;
1390;SDS011;690;51.454;7.194;2023-04-06T02:23:07;15.15;;;8.55;;
1390;SDS011;690;51.454;7.194;2023-04-06T02:25:34;12.77;;;9.32;;
1390;SDS011;690;51.454;7.194;2023-04-06T02:28:01;13.82;;;7.75;;
1390;SDS011;690;51.454;7.194;2023-04-06T02:30:32;16.63;;;8.68;;
1390;SDS011;690;51.454;7.194;2023-04-06T02:33:01;13.20;;;8.32;;
1390;SDS011;690;51.454;7.194;2023-04-06T02:35:28;10.20;;;8.30;;
1390;SDS011;690;51.454;7.194;2023-04-06T02:37:56;12.43;;;7.80;;
1390;SDS011;690;51.454;7.194;2023-04-06T02:40:23;9.35;;;8.00;;
1390;SDS011;690;51.454;7.194;2023-04-06T02:42:50;13.40;;;8.80;;
1390;SDS011;690;51.454;7.194;2023-04-06T02:45:17;12.23;;;8.23;;
1390;SDS011;690;51.454;7.194;2023-04-06T02:47:44;10.05;;;8.55;;
1390;SDS011;690;51.454;7.194;2023-04-06T02:50:12;10.88;;;7.68;;
1390;SDS011;690;51.454;7.194;2023-04-06T02:52:39;12.82;;;8.85;;
1390;SDS011;690;51.454;7.194;2023-04-06T02:55:07;10.82;;;7.55;;
1390;SDS011;690;51.454;7.194;2023-04-06T02:57:35;10.50;;;7.25;;
1390;SDS011;690;51.454;7.194;2023-04-06T03:00:02;12.63;;;8.70;;
1390;SDS011;690;51.454;7.194;2023-04-06T03:02:29;8.80;;;7.53;;
1390;SDS011;690;51.454;7.194;2023-04-06T03:04:56;13.18;;;8.25;;
1390;SDS011;690;51.454;7.194;2023-04-06T03:07:25;11.68;;;8.77;;
1390;SDS011;690;51.454;7.194;2023-04-06T03:09:52;16.00;;;8.70;;
1390;SDS011;690;51.454;7.194;2023-04-06T03:12:19;12.13;;;8.48;;
1390;SDS011;690;51.454;7.194;2023-04-06T03:14:45;13.95;;;8.60;;
1390;SDS011;690;51.454;7.194;2023-04-06T03:17:12;12.00;;;8.18;;
1390;SDS011;690;51.454;7.194;2023-04-06T03:19:39;12.75;;;7.93;;
1390;SDS011;690;51.454;7.194;2023-04-06T03:22:06;10.95;;;8.05;;
1390;SDS011;690;51.454;7.194;2023-04-06T03:24:35;12.98;;;8.35;;
1390;SDS011;690;51.454;7.194;2023-04-06T03:27:02;11.57;;;8.57;;
1390;SDS011;690;51.454;7.194;2023-04-06T03:29:29;16.80;;;9.43;;
1390;SDS011;690;51.454;7.194;2023-04-06T03:31:56;11.93;;;8.18;;
1390;SDS011;690;51.454;7.194;2023-04-06T03:34:23;17.20;;;8.38;;
1390;SDS011;690;51.454;7.194;2023-04-06T03:36:50;12.77;;;8.00;;
1390;SDS011;690;51.454;7.194;2023-04-06T03:39:17;11.32;;;8.50;;
1390;SDS011;690;51.454;7.194;2023-04-06T03:41:45;13.90;;;8.32;;
1390;SDS011;690;51.454;7.194;2023-04-06T03:44:12;12.20;;;9.05;;
1390;SDS011;690;51.454;7.194;2023-04-06T03:46:39;8.35;;;7.25;;
1390;SDS011;690;51.454;7.194;2023-04-06T03:49:06;10.18;;;7.63;;
1390;SDS011;690;51.454;7.194;2023-04-06T03:51:33;15.68;;;9.43;;
1390;SDS011;690;51.454;7.194;2023-04-06T03:54:00;12.57;;;8.38;;
1390;SDS011;690;51.454;7.194;2023-04-06T03:56:27;12.77;;;8.10;;
1390;SDS011;690;51.454;7.194;2023-04-06T03:58:55;14.23;;;8.18;;
1390;SDS011;690;51.454;7.194;2023-04-06T04:01:22;13.20;;;8.38;;
1390;SDS011;690;51.454;7.194;2023-04-06T04:03:49;11.45;;;8.23;;
1390;SDS011;690;51.454;7.194;2023-04-06T04:06:17;10.68;;;7.85;;
1390;SDS011;690;51.454;7.194;2023-04-06T04:08:44;9.95;;;7.60;;
1390;SDS011;690;51.454;7.194;2023-04-06T04:11:11;10.70;;;7.70;;
1390;SDS011;690;51.454;7.194;2023-04-06T04:13:38;9.82;;;8.10;;
1390;SDS011;690;51.454;7.194;2023-04-06T04:16:06;12.18;;;8.13;;
1390;SDS011;690;51.454;7.194;2023-04-06T04:18:33;10.57;;;7.25;;
1390;SDS011;690;51.454;7.194;2023-04-06T04:21:01;14.80;;;8.30;;
1390;SDS011;690;51.454;7.194;2023-04-06T04:23:28;13.32;;;7.97;;
1390;SDS011;690;51.454;7.194;2023-04-06T04:25:55;10.25;;;7.65;;
1390;SDS011;690;51.454;7.194;2023-04-06T04:28:23;12.52;;;8.18;;
1390;SDS011;690;51.454;7.194;2023-04-06T04:30:50;11.35;;;7.57;;
1390;SDS011;690;51.454;7.194;2023-04-06T04:33:18;10.27;;;8.32;;
1390;SDS011;690;51.454;7.194;2023-04-06T04:35:45;13.73;;;8.02;;
1390;SDS011;690;51.454;7.194;2023-04-06T04:38:12;12.27;;;7.68;;
1390;SDS011;690;51.454;7.194;2023-04-06T04:40:39;14.48;;;8.07;;
1390;SDS011;690;51.454;7.194;2023-04-06T04:43:05;13.95;;;8.50;;
1390;SDS011;690;51.454;7.194;2023-04-06T04:45:32;10.65;;;8.55;;
1390;SDS011;690;51.454;7.194;2023-04-06T04:47:59;9.55;;;7.60;;
1390;SDS011;690;51.454;7.194;2023-04-06T04:50:28;10.38;;;7.90;;
1390;SDS011;690;51.454;7.194;2023-04-06T04:52:54;16.80;;;9.32;;
1390;SDS011;690;51.454;7.194;2023-04-06T04:55:21;9.90;;;7.53;;
1390;SDS011;690;51.454;7.194;2023-04-06T04:57:49;11.13;;;8.70;;
1390;SDS011;690;51.454;7.194;2023-04-06T05:00:16;17.98;;;9.40;;
1390;SDS011;690;51.454;7.194;2023-04-06T05:02:43;13.95;;;7.93;;
1390;SDS011;690;51.454;7.194;2023-04-06T05:05:10;10.23;;;7.82;;
1390;SDS011;690;51.454;7.194;2023-04-06T05:07:39;13.98;;;8.23;;
1390;SDS011;690;51.454;7.194;2023-04-06T05:10:06;10.35;;;7.13;;
1390;SDS011;690;51.454;7.194;2023-04-06T05:12:33;10.93;;;7.30;;
1390;SDS011;690;51.454;7.194;2023-04-06T05:15:01;9.35;;;7.22;;
1390;SDS011;690;51.454;7.194;2023-04-06T05:17:28;10.90;;;7.72;;
1390;SDS011;690;51.454;7.194;2023-04-06T05:19:55;10.02;;;7.57;;
1390;SDS011;690;51.454;7.194;2023-04-06T05:22:22;13.00;;;7.80;;
1390;SDS011;690;51.454;7.194;2023-04-06T05:24:50;9.88;;;7.60;;
1390;SDS011;690;51.454;7.194;2023-04-06T05:27:17;8.50;;;6.95;;
1390;SDS011;690;51.454;7.194;2023-04-06T05:29:44;13.65;;;7.80;;
1390;SDS011;690;51.454;7.194;2023-04-06T05:32:11;8.10;;;6.25;;
1390;SDS011;690;51.454;7.194;2023-04-06T05:34:38;14.48;;;7.38;;
1390;SDS011;690;51.454;7.194;2023-04-06T05:37:05;8.32;;;6.65;;
1390;SDS011;690;51.454;7.194;2023-04-06T05:39:32;11.50;;;7.50;;
1390;SDS011;690;51.454;7.194;2023-04-06T05:42:03;11.82;;;7.03;;
1390;SDS011;690;51.454;7.194;2023-04-06T05:44:31;12.00;;;7.03;;
1390;SDS011;690;51.454;7.194;2023-04-06T05:46:58;8.55;;;7.07;;
1390;SDS011;690;51.454;7.194;2023-04-06T05:49:25;8.82;;;6.70;;
1390;SDS011;690;51.454;7.194;2023-04-06T05:51:52;13.13;;;7.63;;
1390;SDS011;690;51.454;7.194;2023-04-06T05:54:19;8.07;;;6.93;;
1390;SDS011;690;51.454;7.194;2023-04-06T05:56:47;11.38;;;7.75;;
1390;SDS011;690;51.454;7.194;2023-04-06T05:59:16;13.02;;;7.60;;
1390;SDS011;690;51.454;7.194;2023-04-06T06:01:43;10.02;;;7.85;;
1390;SDS011;690;51.454;7.194;2023-04-06T06:04:10;9.20;;;7.38;;
1390;SDS011;690;51.454;7.194;2023-04-06T06:06:40;18.15;;;9.73;;
1390;SDS011;690;51.454;7.194;2023-04-06T06:09:07;12.75;;;8.32;;
1390;SDS011;690;51.454;7.194;2023-04-06T06:11:34;10.40;;;7.00;;
1390;SDS011;690;51.454;7.194;2023-04-06T06:14:02;11.48;;;7.60;;
1390;SDS011;690;51.454;7.194;2023-04-06T06:16:30;8.73;;;6.80;;
1390;SDS011;690;51.454;7.194;2023-04-06T06:18:57;16.83;;;8.15;;
1390;SDS011;690;51.454;7.194;2023-04-06T06:21:24;9.85;;;6.90;;
1390;SDS011;690;51.454;7.194;2023-04-06T06:23:51;12.05;;;7.20;;
1390;SDS011;690;51.454;7.194;2023-04-06T06:26:19;9.95;;;7.60;;
1390;SDS011;690;51.454;7.194;2023-04-06T06:28:46;11.75;;;7.38;;
1390;SDS011;690;51.454;7.194;2023-04-06T06:31:13;12.18;;;7.57;;
1390;SDS011;690;51.454;7.194;2023-04-06T06:33:42;14.55;;;8.82;;
1390;SDS011;690;51.454;7.194;2023-04-06T06:36:09;13.70;;;9.13;;
1390;SDS011;690;51.454;7.194;2023-04-06T06:38:36;11.10;;;7.15;;
1390;SDS011;690;51.454;7.194;2023-04-06T06:41:03;11.30;;;8.05;;
1390;SDS011;690;51.454;7.194;2023-04-06T06:43:30;11.73;;;7.63;;
1390;SDS011;690;51.454;7.194;2023-04-06T06:45:57;9.70;;;7.90;;
1390;SDS011;690;51.454;7.194;2023-04-06T06:48:24;9.07;;;6.70;;
1390;SDS011;690;51.454;7.194;2023-04-06T06:50:53;8.10;;;7.28;;
1390;SDS011;690;51.454;7.194;2023-04-06T06:53:20;11.18;;;8.02;;
1390;SDS011;690;51.454;7.194;2023-04-06T06:55:47;9.98;;;8.02;;
1390;SDS011;690;51.454;7.194;2023-04-06T06:58:14;7.68;;;6.88;;
1390;SDS011;690;51.454;7.194;2023-04-06T07:00:44;15.50;;;8.10;;
1390;SDS011;690;51.454;7.194;2023-04-06T07:03:11;10.17;;;7.47;;
1390;SDS011;690;51.454;7.194;2023-04-06T07:05:38;11.10;;;7.80;;
1390;SDS011;690;51.454;7.194;2023-04-06T07:08:06;10.03;;;8.07;;
1390;SDS011;690;51.454;7.194;2023-04-06T07:10:33;13.27;;;7.30;;
1390;SDS011;690;51.454;7.194;2023-04-06T07:13:00;10.00;;;8.13;;
1390;SDS011;690;51.454;7.194;2023-04-06T07:15:28;9.17;;;7.80;;
1390;SDS011;690;51.454;7.194;2023-04-06T07:17:55;9.63;;;7.10;;
1390;SDS011;690;51.454;7.194;2023-04-06T07:20:22;9.23;;;7.40;;
1390;SDS011;690;51.454;7.194;2023-04-06T07:22:49;9.37;;;7.93;;
1390;SDS011;690;51.454;7.194;2023-04-06T07:25:17;8.60;;;7.60;;
1390;SDS011;690;51.454;7.194;2023-04-06T07:27:44;13.10;;;7.90;;
1390;SDS011;690;51.454;7.194;2023-04-06T07:30:11;9.70;;;7.60;;
1390;SDS011;690;51.454;7.194;2023-04-06T07:32:38;11.63;;;7.57;;
1390;SDS011;690;51.454;7.194;2023-04-06T07:35:05;16.97;;;8.13;;
1390;SDS011;690;51.454;7.194;2023-04-06T07:37:32;10.47;;;6.77;;
1390;SDS011;690;51.454;7.194;2023-04-06T07:40:00;11.27;;;7.30;;
1390;SDS011;690;51.454;7.194;2023-04-06T07:42:28;9.37;;;7.60;;
1390;SDS011;690;51.454;7.194;2023-04-06T07:44:55;8.73;;;7.43;;
1390;SDS011;690;51.454;7.194;2023-04-06T07:47:22;12.30;;;8.60;;
1390;SDS011;690;51.454;7.194;2023-04-06T07:49:50;10.23;;;7.97;;
1390;SDS011;690;51.454;7.194;2023-04-06T07:52:17;11.90;;;8.67;;
1390;SDS011;690;51.454;7.194;2023-04-06T07:54:43;14.40;;;7.80;;
1390;SDS011;690;51.454;7.194;2023-04-06T07:57:10;13.00;;;8.30;;
1390;SDS011;690;51.454;7.194;2023-04-06T07:59:39;11.43;;;8.00;;
1390;SDS011;690;51.454;7.194;2023-04-06T08:02:06;9.20;;;8.03;;
1390;SDS011;690;51.454;7.194;2023-04-06T08:04:32;12.70;;;9.70;;
1390;SDS011;690;51.454;7.194;2023-04-06T08:07:01;12.13;;;7.53;;
1390;SDS011;690;51.454;7.194;2023-04-06T08:09:28;12.30;;;8.63;;
1390;SDS011;690;51.454;7.194;2023-04-06T08:11:55;12.10;;;7.93;;
1390;SDS011;690;51.454;7.194;2023-04-06T08:14:22;10.40;;;8.20;;
1390;SDS011;690;51.454;7.194;2023-04-06T08:16:50;12.30;;;8.37;;
1390;SDS011;690;51.454;7.194;2023-04-06T08:19:17;9.80;;;8.60;;
1390;SDS011;690;51.454;7.194;2023-04-06T08:21:44;12.53;;;9.30;;
1390;SDS011;690;51.454;7.194;2023-04-06T08:24:12;11.83;;;8.70;;
1390;SDS011;690;51.454;7.194;2023-04-06T08:26:39;14.50;;;8.50;;
1390;SDS011;690;51.454;7.194;2023-04-06T08:29:06;12.90;;;8.90;;
1390;SDS011;690;51.454;7.194;2023-04-06T08:31:33;11.17;;;8.47;;
1390;SDS011;690;51.454;7.194;2023-04-06T08:34:02;12.60;;;8.77;;
1390;SDS011;690;51.454;7.194;2023-04-06T08:36:30;9.90;;;8.70;;
1390;SDS011;690;51.454;7.194;2023-04-06T08:38:58;12.10;;;8.60;;
1390;SDS011;690;51.454;7.194;2023-04-06T08:41:25;13.87;;;9.77;;
1390;SDS011;690;51.454;7.194;2023-04-06T08:43:54;10.80;;;9.70;;
1390;SDS011;690;51.454;7.194;2023-04-06T08:46:24;13.43;;;10.43;;
1390;SDS011;690;51.454;7.194;2023-04-06T08:48:54;14.30;;;9.87;;
1390;SDS011;690;51.454;7.194;2023-04-06T08:51:23;11.13;;;9.40;;
1390;SDS011;690;51.454;7.194;2023-04-06T08:53:51;13.40;;;8.90;;
1390;SDS011;690;51.454;7.194;2023-04-06T08:56:20;14.27;;;10.20;;
1390;SDS011;690;51.454;7.194;2023-04-06T08:58:48;14.30;;;9.80;;
1390;SDS011;690;51.454;7.194;2023-04-06T09:01:16;14.03;;;10.70;;
1390;SDS011;690;51.454;7.194;2023-04-06T09:03:44;13.40;;;10.20;;
1390;SDS011;690;51.454;7.194;2023-04-06T09:06:11;13.70;;;10.50;;
1390;SDS011;690;51.454;7.194;2023-04-06T09:08:41;29.83;;;11.27;;
1390;SDS011;690;51.454;7.194;2023-04-06T09:11:08;13.50;;;11.07;;
1390;SDS011;690;51.454;7.194;2023-04-06T09:13:45;15.20;;;11.40;;
1390;SDS011;690;51.454;7.194;2023-04-06T09:16:13;13.63;;;10.93;;
1390;SDS011;690;51.454;7.194;2023-04-06T09:18:41;13.93;;;10.77;;
1390;SDS011;690;51.454;7.194;2023-04-06T09:21:08;15.13;;;11.87;;
1390;SDS011;690;51.454;7.194;2023-04-06T09:23:36;15.80;;;12.53;;
1390;SDS011;690;51.454;7.194;2023-04-06T09:26:08;16.77;;;12.73;;
1390;SDS011;690;51.454;7.194;2023-04-06T09:28:43;15.30;;;12.10;;
1390;SDS011;690;51.454;7.194;2023-04-06T09:31:11;16.50;;;12.57;;
1390;SDS011;690;51.454;7.194;2023-04-06T09:33:38;17.17;;;11.70;;
1390;SDS011;690;51.454;7.194;2023-04-06T09:36:06;18.23;;;12.17;;
1390;SDS011;690;51.454;7.194;2023-04-06T09:38:36;22.13;;;12.40;;
1390;SDS011;690;51.454;7.194;2023-04-06T09:41:03;16.73;;;12.23;;
1390;SDS011;690;51.454;7.194;2023-04-06T09:43:32;17.50;;;12.87;;
1390;SDS011;690;51.454;7.194;2023-04-06T09:46:00;15.50;;;11.60;;
1390;SDS011;690;51.454;7.194;2023-04-06T09:48:29;17.13;;;11.73;;
1390;SDS011;690;51.454;7.194;2023-04-06T09:51:03;17.60;;;12.70;;
1390;SDS011;690;51.454;7.194;2023-04-06T09:53:31;14.93;;;11.60;;
1390;SDS011;690;51.454;7.194;2023-04-06T09:56:02;13.97;;;11.37;;
1390;SDS011;690;51.454;7.194;2023-04-06T09:58:34;16.33;;;12.10;;
1390;SDS011;690;51.454;7.194;2023-04-06T10:01:05;16.73;;;12.50;;
1390;SDS011;690;51.454;7.194;2023-04-06T10:03:36;16.80;;;12.13;;
1390;SDS011;690;51.454;7.194;2023-04-06T10:06:18;22.10;;;14.40;;
1390;SDS011;690;51.454;7.194;2023-04-06T10:08:49;18.47;;;12.47;;
1390;SDS011;690;51.454;7.194;2023-04-06T10:11:19;16.53;;;13.27;;
1390;SDS011;690;51.454;7.194;2023-04-06T10:13:48;17.37;;;13.30;;
1390;SDS011;690;51.454;7.194;2023-04-06T10:16:16;18.17;;;13.10;;
1390;SDS011;690;51.454;7.194;2023-04-06T10:18:47;21.43;;;14.00;;
1390;SDS011;690;51.454;7.194;2023-04-06T10:21:19;17.27;;;13.47;;
1390;SDS011;690;51.454;7.194;2023-04-06T10:23:51;17.67;;;12.73;;
1390;SDS011;690;51.454;7.194;2023-04-06T10:26:20;16.43;;;12.47;;
1390;SDS011;690;51.454;7.194;2023-04-06T10:28:49;20.60;;;13.40;;
1390;SDS011;690;51.454;7.194;2023-04-06T10:31:23;17.40;;;13.27;;
1390;SDS011;690;51.454;7.194;2023-04-06T10:33:54;18.90;;;14.00;;
1390;SDS011;690;51.454;7.194;2023-04-06T10:36:22;18.47;;;13.00;;
1390;SDS011;690;51.454;7.194;2023-04-06T10:38:53;18.50;;;14.30;;
1390;SDS011;690;51.454;7.194;2023-04-06T10:41:22;20.50;;;13.60;;
1390;SDS011;690;51.454;7.194;2023-04-06T10:43:56;21.70;;;14.07;;
1390;SDS011;690;51.454;7.194;2023-04-06T10:46:26;17.77;;;14.67;;
1390;SDS011;690;51.454;7.194;2023-04-06T10:48:54;21.03;;;13.50;;
1390;SDS011;690;51.454;7.194;2023-04-06T10:51:24;21.53;;;14.47;;
1390;SDS011;690;51.454;7.194;2023-04-06T10:53:53;20.00;;;14.47;;
1390;SDS011;690;51.454;7.194;2023-04-06T10:56:22;20.30;;;14.67;;
1390;SDS011;690;51.454;7.194;2023-04-06T10:58:51;15.90;;;13.43;;
1390;SDS011;690;51.454;7.194;2023-04-06T11:01:22;15.60;;;12.30;;
1390;SDS011;690;51.454;7.194;2023-04-06T11:03:52;20.70;;;13.63;;
1390;SDS011;690;51.454;7.194;2023-04-06T11:06:21;17.70;;;13.50;;
1390;SDS011;690;51.454;7.194;2023-04-06T11:08:48;19.00;;;13.33;;
1390;SDS011;690;51.454;7.194;2023-04-06T11:11:17;20.13;;;14.07;;
1390;SDS011;690;51.454;7.194;2023-04-06T11:13:46;14.60;;;10.90;;
1390;SDS011;690;51.454;7.194;2023-04-06T11:16:15;17.53;;;13.53;;
1390;SDS011;690;51.454;7.194;2023-04-06T11:18:50;17.00;;;14.13;;
1390;SDS011;690;51.454;7.194;2023-04-06T11:21:19;17.83;;;13.33;;
1390;SDS011;690;51.454;7.194;2023-04-06T11:23:47;18.60;;;14.33;;
1390;SDS011;690;51.454;7.194;2023-04-06T11:26:14;18.00;;;15.43;;
1390;SDS011;690;51.454;7.194;2023-04-06T11:28:41;18.40;;;15.60;;
1390;SDS011;690;51.454;7.194;2023-04-06T11:31:09;21.00;;;17.23;;
1390;SDS011;690;51.454;7.194;2023-04-06T11:33:37;20.03;;;16.50;;
1390;SDS011;690;51.454;7.194;2023-04-06T11:36:06;22.13;;;17.10;;
1390;SDS011;690;51.454;7.194;2023-04-06T11:38:34;23.80;;;17.43;;
1390;SDS011;690;51.454;7.194;2023-04-06T11:41:04;25.73;;;19.60;;
1390;SDS011;690;51.454;7.194;2023-04-06T11:43:31;24.20;;;18.90;;
1390;SDS011;690;51.454;7.194;2023-04-06T11:46:01;24.53;;;19.20;;
1390;SDS011;690;51.454;7.194;2023-04-06T11:48:29;21.83;;;18.50;;
1390;SDS011;690;51.454;7.194;2023-04-06T11:50:56;23.10;;;17.50;;
1390;SDS011;690;51.454;7.194;2023-04-06T11:53:27;25.47;;;20.20;;
1390;SDS011;690;51.454;7.194;2023-04-06T11:55:54;23.70;;;19.10;;
1390;SDS011;690;51.454;7.194;2023-04-06T11:58:22;24.87;;;18.13;;
1390;SDS011;690;51.454;7.194;2023-04-06T12:00:49;21.90;;;18.43;;
1390;SDS011;690;51.454;7.194;2023-04-06T12:03:15;26.20;;;19.70;;
1390;SDS011;690;51.454;7.194;2023-04-06T12:05:43;24.00;;;19.33;;
1390;SDS011;690;51.454;7.194;2023-04-06T12:08:10;22.90;;;18.37;;
1390;SDS011;690;51.454;7.194;2023-04-06T12:10:39;23.50;;;17.40;;
1390;SDS011;690;51.454;7.194;2023-04-06T12:13:05;19.70;;;16.67;;
1390;SDS011;690;51.454;7.194;2023-04-06T12:15:32;22.07;;;17.63;;
1390;SDS011;690;51.454;7.194;2023-04-06T12:17:59;19.57;;;15.77;;
1390;SDS011;690;51.454;7.194;2023-04-06T12:20:26;19.53;;;14.17;;
1390;SDS011;690;51.454;7.194;2023-04-06T12:22:53;19.23;;;14.77;;
1390;SDS011;690;51.454;7.194;2023-04-06T12:25:20;19.80;;;15.70;;
1390;SDS011;690;51.454;7.194;2023-04-06T12:27:48;20.37;;;15.30;;
1390;SDS011;690;51.454;7.194;2023-04-06T12:30:15;22.27;;;15.17;;
1390;SDS011;690;51.454;7.194;2023-04-06T12:32:42;21.60;;;14.90;;
1390;SDS011;690;51.454;7.194;2023-04-06T12:35:09;17.27;;;14.07;;
1390;SDS011;690;51.454;7.194;2023-04-06T12:37:40;25.20;;;15.93;;
1390;SDS011;690;51.454;7.194;2023-04-06T12:40:08;18.30;;;13.93;;
1390;SDS011;690;51.454;7.194;2023-04-06T12:42:38;20.30;;;15.77;;
1390;SDS011;690;51.454;7.194;2023-04-06T12:45:08;18.33;;;13.90;;
1390;SDS011;690;51.454;7.194;2023-04-06T12:47:36;18.17;;;13.47;;
1390;SDS011;690;51.454;7.194;2023-04-06T12:50:03;17.00;;;13.73;;
1390;SDS011;690;51.454;7.194;2023-04-06T12:52:31;20.50;;;12.57;;
1390;SDS011;690;51.454;7.194;2023-04-06T12:55:00;15.10;;;12.33;;
1390;SDS011;690;51.454;7.194;2023-04-06T12:57:27;26.37;;;14.60;;
1390;SDS011;690;51.454;7.194;2023-04-06T12:59:54;21.97;;;15.73;;
1390;SDS011;690;51.454;7.194;2023-04-06T13:02:23;20.00;;;14.60;;
1390;SDS011;690;51.454;7.194;2023-04-06T13:04:51;19.10;;;15.03;;
1390;SDS011;690;51.454;7.194;2023-04-06T13:07:18;23.30;;;15.60;;
1390;SDS011;690;51.454;7.194;2023-04-06T13:09:45;22.03;;;14.57;;
1390;SDS011;690;51.454;7.194;2023-04-06T13:12:14;20.77;;;14.70;;
1390;SDS011;690;51.454;7.194;2023-04-06T13:14:41;20.43;;;15.27;;
1390;SDS011;690;51.454;7.194;2023-04-06T13:17:08;22.10;;;14.60;;
1390;SDS011;690;51.454;7.194;2023-04-06T13:19:37;20.30;;;14.80;;
1390;SDS011;690;51.454;7.194;2023-04-06T13:22:04;19.57;;;13.77;;
1390;SDS011;690;51.454;7.194;2023-04-06T13:24:31;19.73;;;14.77;;
1390;SDS011;690;51.454;7.194;2023-04-06T13:26:59;26.87;;;15.07;;
1390;SDS011;690;51.454;7.194;2023-04-06T13:29:27;20.00;;;15.47;;
1390;SDS011;690;51.454;7.194;2023-04-06T13:31:54;18.60;;;14.80;;
1390;SDS011;690;51.454;7.194;2023-04-06T13:34:21;22.00;;;14.60;;
1390;SDS011;690;51.454;7.194;2023-04-06T13:36:49;19.10;;;15.17;;
1390;SDS011;690;51.454;7.194;2023-04-06T13:39:16;19.17;;;14.40;;
1390;SDS011;690;51.454;7.194;2023-04-06T13:41:43;19.67;;;12.60;;
1390;SDS011;690;51.454;7.194;2023-04-06T13:44:11;18.00;;;13.60;;
1390;SDS011;690;51.454;7.194;2023-04-06T13:46:38;18.07;;;14.93;;
1390;SDS011;690;51.454;7.194;2023-04-06T13:49:05;20.93;;;14.70;;
1390;SDS011;690;51.454;7.194;2023-04-06T13:51:31;19.40;;;14.37;;
1390;SDS011;690;51.454;7.194;2023-04-06T13:54:00;16.97;;;14.40;;
1390;SDS011;690;51.454;7.194;2023-04-06T13:56:27;21.00;;;13.03;;
1390;SDS011;690;51.454;7.194;2023-04-06T13:58:53;14.40;;;11.63;;
1390;SDS011;690;51.454;7.194;2023-04-06T14:01:22;17.60;;;12.83;;
1390;SDS011;690;51.454;7.194;2023-04-06T14:03:51;15.90;;;12.47;;
1390;SDS011;690;51.454;7.194;2023-04-06T14:06:18;20.53;;;13.80;;
1390;SDS011;690;51.454;7.194;2023-04-06T14:08:45;17.60;;;13.20;;
1390;SDS011;690;51.454;7.194;2023-04-06T14:11:13;18.07;;;13.77;;
1390;SDS011;690;51.454;7.194;2023-04-06T14:13:41;17.93;;;13.30;;
1390;SDS011;690;51.454;7.194;2023-04-06T14:16:08;16.77;;;12.33;;
1390;SDS011;690;51.454;7.194;2023-04-06T14:18:35;17.27;;;13.10;;
1390;SDS011;690;51.454;7.194;2023-04-06T14:21:03;15.00;;;12.03;;
1390;SDS011;690;51.454;7.194;2023-04-06T14:23:30;17.70;;;13.40;;
1390;SDS011;690;51.454;7.194;2023-04-06T14:26:01;18.50;;;12.87;;
1390;SDS011;690;51.454;7.194;2023-04-06T14:28:31;17.73;;;13.00;;
1390;SDS011;690;51.454;7.194;2023-04-06T14:30:59;18.53;;;13.50;;
1390;SDS011;690;51.454;7.194;2023-04-06T14:33:27;15.33;;;11.73;;
1390;SDS011;690;51.454;7.194;2023-04-06T14:35:56;16.30;;;11.90;;
1390;SDS011;690;51.454;7.194;2023-04-06T14:38:23;15.90;;;10.90;;
1390;SDS011;690;51.454;7.194;2023-04-06T14:40:50;14.80;;;12.07;;
1390;SDS011;690;51.454;7.194;2023-04-06T14:43:17;16.23;;;11.27;;
1390;SDS011;690;51.454;7.194;2023-04-06T14:45:45;13.70;;;10.90;;
1390;SDS011;690;51.454;7.194;2023-04-06T14:48:12;12.30;;;10.13;;
1390;SDS011;690;51.454;7.194;2023-04-06T14:50:40;14.43;;;10.53;;
1390;SDS011;690;51.454;7.194;2023-04-06T14:53:11;14.67;;;11.80;;
1390;SDS011;690;51.454;7.194;2023-04-06T14:55:38;17.90;;;12.80;;
1390;SDS011;690;51.454;7.194;2023-04-06T14:58:07;19.10;;;12.83;;
1390;SDS011;690;51.454;7.194;2023-04-06T15:00:37;20.03;;;11.90;;
1390;SDS011;690;51.454;7.194;2023-04-06T15:03:05;18.13;;;13.50;;
1390;SDS011;690;51.454;7.194;2023-04-06T15:05:33;17.10;;;12.20;;
1390;SDS011;690;51.454;7.194;2023-04-06T15:08:00;17.60;;;12.67;;
1390;SDS011;690;51.454;7.194;2023-04-06T15:10:30;19.10;;;13.50;;
1390;SDS011;690;51.454;7.194;2023-04-06T15:12:57;14.87;;;12.30;;